Time;durP1;ratioP1;P1;durP2;ratioP2;P2;SDS_P1;SDS_P2;PMS_P1;PMS_P2;Temp;Humidity;BMP_temperature;BMP_pressure;BME280_temperature;BME280_humidity;BME280_pressure;Samples;Min_cycle;Max_cycle;Signal;HPM_P1;HPM_P2
2022/01/19 00:01:26;;;;;;;13.00;7.60;;;1.80;99.90;;;;;;4864584;29;20227;-80
2022/01/19 00:03:52;;;;;;;13.10;7.72;;;1.70;99.90;;;;;;4896742;29;20045;-82
2022/01/19 00:06:18;;;;;;;11.10;7.18;;;1.70;99.90;;;;;;4864917;29;20088;-81
2022/01/19 00:08:44;;;;;;;14.45;7.47;;;1.70;99.90;;;;;;4865408;29;20106;-81
2022/01/19 00:11:10;;;;;;;13.48;8.23;;;1.80;99.90;;;;;;4864962;29;20312;-80
2022/01/19 00:13:36;;;;;;;14.45;8.75;;;1.80;99.90;;;;;;4865383;29;20300;-83
2022/01/19 00:16:02;;;;;;;14.50;8.40;;;1.80;99.90;;;;;;4864840;29;20090;-80
2022/01/19 00:18:29;;;;;;;12.80;8.07;;;1.70;99.90;;;;;;4850901;29;20022;-80
2022/01/19 00:20:55;;;;;;;14.32;8.38;;;1.60;99.90;;;;;;4880809;29;20040;-80
2022/01/19 00:23:22;;;;;;;16.38;8.43;;;1.50;99.90;;;;;;4867692;29;20100;-82
2022/01/19 00:25:49;;;;;;;17.45;9.18;;;1.40;99.90;;;;;;4868249;29;20334;-81
2022/01/19 00:28:16;;;;;;;16.08;8.57;;;1.30;99.90;;;;;;4883421;29;20093;-81
2022/01/19 00:30:43;;;;;;;15.18;8.82;;;1.40;99.90;;;;;;4883662;29;20292;-81
2022/01/19 00:33:13;;;;;;;13.20;8.35;;;1.30;99.90;;;;;;4867782;29;20033;-82
2022/01/19 00:35:39;;;;;;;16.58;9.38;;;1.20;99.90;;;;;;4868121;29;20042;-80
2022/01/19 00:38:07;;;;;;;15.80;9.18;;;1.20;99.90;;;;;;4880321;29;20033;-80
2022/01/19 00:40:36;;;;;;;17.77;9.93;;;1.10;99.90;;;;;;4849505;29;20038;-80
2022/01/19 00:43:01;;;;;;;14.48;9.38;;;1.20;99.90;;;;;;4865098;29;20062;-81
2022/01/19 00:45:28;;;;;;;16.90;10.00;;;1.10;99.90;;;;;;4851950;29;20038;-83
2022/01/19 00:47:54;;;;;;;15.07;9.65;;;1.10;99.90;;;;;;4852914;29;20228;-83
2022/01/19 00:50:26;;;;;;;16.60;9.23;;;1.10;99.90;;;;;;4852386;29;20049;-81
2022/01/19 00:52:52;;;;;;;18.05;9.38;;;1.10;99.90;;;;;;4874487;29;20220;-81
2022/01/19 00:55:21;;;;;;;18.50;10.00;;;1.20;99.90;;;;;;4883144;29;20034;-81
2022/01/19 00:57:47;;;;;;;16.30;9.68;;;1.20;99.90;;;;;;4867788;29;20036;-79
2022/01/19 01:00:17;;;;;;;17.52;10.02;;;1.10;99.90;;;;;;4883970;29;20082;-80
2022/01/19 01:02:43;;;;;;;18.25;9.70;;;1.00;99.90;;;;;;4871115;29;20037;-81
2022/01/19 01:05:09;;;;;;;19.60;9.73;;;1.10;99.90;;;;;;4902152;29;20037;-80
2022/01/19 01:07:38;;;;;;;18.23;10.40;;;1.20;99.90;;;;;;4886329;29;20331;-79
2022/01/19 01:10:05;;;;;;;;;;;1.20;99.90;;;;;;4871692;29;20026;-81
2022/01/19 01:12:43;;;;;;;17.42;9.48;;;1.20;99.90;;;;;;4854946;29;20255;-79
2022/01/19 01:15:30;;;;;;;18.95;10.18;;;1.20;99.90;;;;;;4870891;29;20064;-80
2022/01/19 01:20:33;;;;;;;18.35;9.95;;;1.00;99.90;;;;;;4885720;29;20041;-80
2022/01/19 01:23:00;;;;;;;18.92;10.65;;;0.90;99.90;;;;;;4886874;29;20262;-81
2022/01/19 01:25:26;;;;;;;21.48;11.32;;;0.80;99.90;;;;;;4885906;29;20036;-82
2022/01/19 01:27:52;;;;;;;16.90;10.23;;;0.70;99.90;;;;;;4885726;29;20026;-80
2022/01/19 01:30:19;;;;;;;18.38;9.98;;;0.70;99.90;;;;;;4885918;29;20077;-81
2022/01/19 01:32:46;;;;;;;17.85;10.50;;;0.70;99.90;;;;;;4886356;29;20021;-81
2022/01/19 01:35:14;;;;;;;17.00;10.63;;;0.60;99.90;;;;;;4886353;29;20189;-80
2022/01/19 01:37:41;;;;;;;16.00;10.15;;;0.50;99.90;;;;;;4885830;29;20030;-80
2022/01/19 01:40:12;;;;;;;19.40;11.15;;;0.60;99.90;;;;;;4885803;29;20141;-81
2022/01/19 01:42:38;;;;;;;18.52;10.55;;;0.60;99.90;;;;;;4886101;29;20033;-81
2022/01/19 01:45:09;;;;;;;19.90;11.38;;;0.60;99.90;;;;;;4885154;29;20078;-80
2022/01/19 01:47:41;;;;;;;16.75;10.60;;;0.60;99.90;;;;;;4869024;29;20057;-80
2022/01/19 01:55:24;;;;;;;21.87;11.50;;;0.40;99.90;;;;;;4884989;29;20037;-80
2022/01/19 01:57:50;;;;;;;19.83;10.43;;;0.50;99.90;;;;;;4888242;29;20514;-80
2022/01/19 02:00:22;;;;;;;17.13;10.45;;;0.50;99.90;;;;;;4885932;29;20125;-78
2022/01/19 02:02:52;;;;;;;20.75;11.02;;;0.50;99.90;;;;;;4888567;29;20055;-81
2022/01/19 02:05:22;;;;;;;20.95;11.63;;;0.50;99.90;;;;;;4885006;29;20058;-81
2022/01/19 02:08:10;;;;;;;21.50;11.20;;;0.40;99.90;;;;;;4870694;29;20065;-80
2022/01/19 02:10:40;;;;;;;21.00;11.18;;;0.50;99.90;;;;;;4886314;29;20232;-79
2022/01/19 02:23:53;;;;;;;18.42;11.32;;;0.70;99.90;;;;;;4869772;29;20065;-80
2022/01/19 02:26:44;;;;;;;22.13;12.05;;;0.80;99.90;;;;;;4869346;29;20218;-79
2022/01/19 02:29:40;;;;;;;21.38;12.48;;;0.90;99.90;;;;;;4854172;29;20184;-80
2022/01/19 02:40:32;;;;;;;17.80;10.32;;;0.90;99.90;;;;;;4868735;29;20037;-81
2022/01/19 02:50:58;;;;;;;21.48;10.55;;;0.90;99.90;;;;;;4869448;29;20269;-80
2022/01/19 02:53:24;;;;;;;19.05;10.25;;;0.80;99.90;;;;;;4853519;29;20089;-80
2022/01/19 02:55:50;;;;;;;18.70;10.32;;;0.70;99.90;;;;;;4885011;29;20120;-81
2022/01/19 02:58:19;;;;;;;21.90;11.43;;;0.50;99.90;;;;;;4869721;29;20328;-81
2022/01/19 03:08:43;;;;;;;19.23;11.05;;;0.40;99.90;;;;;;4884163;29;20025;-80
2022/01/19 03:09:04;;;;;;;19.60;10.82;;;0.30;99.90;;;;;;4866165;29;20045;-79
2022/01/19 03:11:29;;;;;;;18.98;10.70;;;0.30;99.90;;;;;;4868206;29;20208;-81
2022/01/19 03:13:55;;;;;;;20.77;10.98;;;0.20;99.90;;;;;;4870025;29;20033;-82
2022/01/19 03:16:22;;;;;;;18.27;9.98;;;0.10;99.90;;;;;;4868428;29;20028;-80
2022/01/19 03:18:49;;;;;;;21.30;10.68;;;0.20;99.90;;;;;;4884496;29;20296;-82
2022/01/19 03:21:17;;;;;;;20.80;11.15;;;0.10;99.90;;;;;;4869071;29;20262;-82
2022/01/19 03:23:46;;;;;;;26.05;13.73;;;0.10;99.90;;;;;;4868206;29;20025;-82
2022/01/19 03:26:11;;;;;;;24.45;13.32;;;0.10;99.90;;;;;;4869224;29;20288;-81
2022/01/19 03:28:57;;;;;;;22.20;12.63;;;0.10;99.90;;;;;;4870109;29;20021;-79
2022/01/19 03:31:23;;;;;;;26.45;13.60;;;0.10;99.90;;;;;;4853225;29;20036;-79
2022/01/19 03:33:49;;;;;;;24.77;12.75;;;0.10;99.90;;;;;;4868766;29;20092;-80
2022/01/19 03:36:17;;;;;;;26.80;12.20;;;0.10;99.90;;;;;;4870046;29;20025;-78
2022/01/19 03:38:44;;;;;;;25.45;12.98;;;0.10;99.90;;;;;;4852862;29;20308;-79
2022/01/19 03:41:12;;;;;;;23.55;13.10;;;0.00;99.90;;;;;;4853602;29;20076;-78
2022/01/19 03:43:38;;;;;;;23.55;12.55;;;0.00;99.90;;;;;;4883945;29;20026;-78
2022/01/19 03:46:15;;;;;;;22.58;12.88;;;0.00;99.90;;;;;;4884200;29;20040;-80
2022/01/19 03:51:12;;;;;;;21.42;13.00;;;-0.10;99.90;;;;;;4884564;29;20100;-81
2022/01/19 03:53:39;;;;;;;24.73;12.73;;;-0.20;99.90;;;;;;4868226;29;20316;-80
2022/01/19 03:56:04;;;;;;;28.17;13.43;;;-0.20;99.90;;;;;;4868811;29;20058;-81
2022/01/19 03:58:30;;;;;;;24.85;13.52;;;-0.10;99.90;;;;;;4883849;29;20033;-80
2022/01/19 04:00:59;;;;;;;22.95;12.60;;;-0.10;99.90;;;;;;4868412;29;20061;-80
2022/01/19 04:03:48;;;;;;;20.65;12.13;;;0.00;99.90;;;;;;4883365;29;20033;-80
2022/01/19 04:08:45;;;;;;;25.02;12.48;;;-0.20;99.90;;;;;;4870315;29;20033;-79
2022/01/19 04:11:12;;;;;;;28.40;13.95;;;-0.20;99.90;;;;;;4871585;29;20112;-80
2022/01/19 04:16:24;;;;;;;23.70;13.73;;;-0.10;99.90;;;;;;4867895;29;20033;-81
2022/01/19 04:18:54;;;;;;;26.65;14.20;;;-0.30;99.90;;;;;;4869866;29;20064;-79
2022/01/19 04:21:20;;;;;;;27.08;14.52;;;-0.30;99.90;;;;;;4887474;29;20049;-80
2022/01/19 04:23:45;;;;;;;30.80;15.23;;;-0.30;99.90;;;;;;4871883;29;20077;-81
2022/01/19 04:26:11;;;;;;;26.65;14.02;;;-0.20;99.90;;;;;;4872123;29;20215;-79
2022/01/19 04:28:41;;;;;;;24.08;13.13;;;-0.30;99.90;;;;;;4872120;29;20059;-79
2022/01/19 04:31:06;;;;;;;25.25;13.73;;;-0.30;99.90;;;;;;4872522;29;20034;-81
2022/01/19 04:33:32;;;;;;;25.30;13.40;;;-0.30;99.90;;;;;;4887106;29;20354;-79
2022/01/19 04:36:20;;;;;;;24.27;13.23;;;-0.40;99.90;;;;;;4873274;29;20033;-79
2022/01/19 05:07:15;;;;;;;25.40;13.57;;;-0.50;99.90;;;;;;4886576;29;20049;-80
2022/01/19 05:10:04;;;;;;;24.92;12.80;;;-0.50;99.90;;;;;;4886075;29;20312;-79
2022/01/19 05:15:18;;;;;;;28.45;15.18;;;-0.50;99.90;;;;;;4886404;29;20224;-80
2022/01/19 05:17:44;;;;;;;29.67;15.05;;;-0.50;99.90;;;;;;4885558;29;20036;-81
2022/01/19 05:20:11;;;;;;;32.88;16.15;;;-0.50;99.90;;;;;;4886418;29;20021;-81
2022/01/19 05:22:37;;;;;;;28.67;15.27;;;-0.50;99.90;;;;;;4885904;29;20037;-82
2022/01/19 05:25:10;;;;;;;29.02;15.93;;;-0.60;99.90;;;;;;4886524;29;20360;-79
2022/01/19 05:27:48;;;;;;;31.42;15.38;;;-0.50;99.90;;;;;;4884018;29;20331;-80
2022/01/19 05:30:17;;;;;;;29.08;14.88;;;-0.40;99.90;;;;;;4886077;29;20040;-81
2022/01/19 05:32:46;;;;;;;29.00;15.80;;;-0.50;99.90;;;;;;4885950;29;20236;-82
2022/01/19 05:35:12;;;;;;;33.50;16.92;;;-0.50;99.90;;;;;;4885990;29;20041;-78
2022/01/19 05:38:04;;;;;;;34.65;15.82;;;-0.40;99.90;;;;;;4881151;29;20037;-78
2022/01/19 05:40:56;;;;;;;29.88;15.30;;;-0.50;99.90;;;;;;4886262;29;20100;-79
2022/01/19 05:43:22;;;;;;;28.70;16.02;;;-0.50;99.90;;;;;;4886091;29;20048;-79
2022/01/19 05:45:48;;;;;;;33.70;17.85;;;-0.40;99.90;;;;;;4870002;29;20029;-78
2022/01/19 05:48:17;;;;;;;28.20;15.20;;;-0.50;99.90;;;;;;4885578;29;20060;-79
2022/01/19 05:50:48;;;;;;;28.73;15.55;;;-0.50;99.90;;;;;;4885017;29;20045;-80
2022/01/19 05:53:16;;;;;;;;;;;-0.40;99.90;;;;;;4886268;29;20120;-80
2022/01/19 05:55:43;;;;;;;29.52;15.20;;;-0.50;99.90;;;;;;4900745;29;19915;-80
2022/01/19 05:58:09;;;;;;;27.27;16.02;;;-0.50;99.90;;;;;;4886215;29;20109;-79
2022/01/19 06:00:35;;;;;;;29.50;14.50;;;-0.50;99.90;;;;;;4854023;29;20223;-81
2022/01/19 06:03:04;;;;;;;30.50;15.50;;;-0.50;99.90;;;;;;4869424;29;20320;-80
2022/01/19 06:05:51;;;;;;;28.60;14.73;;;-0.50;99.90;;;;;;4873212;29;20082;-79
2022/01/19 06:08:59;;;;;;;31.55;16.17;;;-0.40;99.90;;;;;;4873240;29;20065;-80
2022/01/19 06:11:26;;;;;;;29.67;15.30;;;-0.40;99.90;;;;;;4902050;29;20146;-80
2022/01/19 06:14:20;;;;;;;28.48;13.95;;;-0.40;99.90;;;;;;4870357;29;20034;-79
2022/01/19 06:16:46;;;;;;;27.23;13.68;;;-0.50;99.90;;;;;;4853658;29;20205;-79
2022/01/19 06:19:14;;;;;;;31.70;14.30;;;-0.60;99.90;;;;;;4888973;29;20057;-80
2022/01/19 06:21:40;;;;;;;30.37;14.70;;;-0.60;99.90;;;;;;4854314;29;20305;-80
2022/01/19 06:24:06;;;;;;;29.27;16.08;;;-0.70;99.90;;;;;;4869578;29;20029;-80
2022/01/19 06:26:33;;;;;;;28.75;15.10;;;-0.70;99.90;;;;;;4870516;29;20064;-79
2022/01/19 06:28:58;;;;;;;30.40;16.48;;;-0.60;99.90;;;;;;4873257;29;20137;-79
2022/01/19 06:31:25;;;;;;;28.70;15.18;;;-0.60;99.90;;;;;;4872770;29;20045;-79
2022/01/19 06:33:54;;;;;;;31.95;15.18;;;-0.60;99.90;;;;;;4872785;29;20029;-81
2022/01/19 06:36:27;;;;;;;29.23;14.98;;;-0.50;99.90;;;;;;4857574;29;20025;-80
2022/01/19 06:39:37;;;;;;;33.93;16.37;;;-0.40;99.90;;;;;;4885342;29;20029;-81
2022/01/19 06:42:29;;;;;;;31.35;16.05;;;-0.20;99.90;;;;;;4885395;29;20320;-80
2022/01/19 07:03:32;;;;;;;23.75;12.68;;;0.20;99.90;;;;;;4926425;28;20361;-80
2022/01/19 07:06:32;;;;;;;23.15;12.32;;;-0.10;99.90;;;;;;4934026;29;20048;-81
2022/01/19 07:09:18;;;;;;;29.25;13.93;;;-0.20;99.90;;;;;;4944033;29;20067;-80
2022/01/19 07:11:52;;;;;;;27.52;14.32;;;-0.30;99.90;;;;;;4924390;29;20111;-81
2022/01/19 07:14:31;;;;;;;23.48;12.90;;;-0.30;99.90;;;;;;4949370;29;20058;-81
2022/01/19 07:16:58;;;;;;;24.42;12.52;;;-0.40;99.90;;;;;;4928449;29;20059;-81
2022/01/19 07:19:24;;;;;;;31.48;15.15;;;-0.40;99.90;;;;;;4924870;29;20070;-80
2022/01/19 07:21:53;;;;;;;28.52;14.18;;;-0.40;99.90;;;;;;4924645;29;20032;-80
2022/01/19 07:24:19;;;;;;;26.13;13.98;;;-0.40;99.90;;;;;;4925328;29;20293;-81
2022/01/19 07:26:44;;;;;;;28.95;13.48;;;-0.30;99.90;;;;;;4908684;29;20127;-81
2022/01/19 07:29:47;;;;;;;33.33;15.93;;;-0.40;99.90;;;;;;4925357;29;20028;-80
2022/01/19 07:32:22;;;;;;;25.63;13.98;;;-0.40;99.90;;;;;;4933236;29;20213;-81
2022/01/19 07:35:14;;;;;;;25.27;13.20;;;-0.40;99.90;;;;;;4925054;29;20032;-82
2022/01/19 07:37:46;;;;;;;27.85;13.85;;;-0.20;99.90;;;;;;4909254;29;20247;-82
2022/01/19 07:46:17;;;;;;;27.40;14.98;;;-0.20;99.90;;;;;;4961565;28;20371;-80
2022/01/19 07:48:50;;;;;;;30.45;15.32;;;-0.10;99.90;;;;;;4930928;29;20103;-80
2022/01/19 07:51:32;;;;;;;26.92;13.77;;;-0.10;99.90;;;;;;4932023;29;20039;-81
2022/01/19 07:54:19;;;;;;;30.60;14.48;;;0.00;99.90;;;;;;4952629;29;20031;-81
2022/01/19 07:56:57;;;;;;;26.70;14.32;;;0.20;99.90;;;;;;4951929;29;20063;-81
2022/01/19 07:59:54;;;;;;;23.00;13.90;;;0.20;99.90;;;;;;4953782;29;20035;-80
2022/01/19 08:02:20;;;;;;;24.05;13.88;;;0.30;99.90;;;;;;4949879;29;20103;-80
2022/01/19 08:05:08;;;;;;;27.25;13.38;;;0.30;99.90;;;;;;4944420;29;20039;-80
2022/01/19 08:07:35;;;;;;;;;;;0.40;99.90;;;;;;4949679;29;20031;-80
2022/01/19 08:10:05;;;;;;;26.15;14.02;;;0.50;99.90;;;;;;4933533;29;19928;-79
2022/01/19 08:12:32;;;;;;;25.75;14.02;;;0.50;99.90;;;;;;4965725;28;20046;-80
2022/01/19 08:14:58;;;;;;;28.58;15.27;;;0.60;99.90;;;;;;4933349;29;20027;-82
2022/01/19 08:17:30;;;;;;;35.42;15.75;;;0.70;99.90;;;;;;4964719;29;20050;-81
2022/01/19 08:19:56;;;;;;;37.92;16.80;;;0.70;99.90;;;;;;4933292;29;20035;-80
2022/01/19 08:22:23;;;;;;;35.75;17.42;;;0.80;99.90;;;;;;4962951;29;20035;-80
2022/01/19 08:25:12;;;;;;;40.03;16.77;;;0.90;99.90;;;;;;4935845;29;20032;-81
2022/01/19 08:27:38;;;;;;;34.22;16.92;;;1.00;99.90;;;;;;4911904;29;20047;-81
2022/01/19 08:30:09;;;;;;;28.88;15.18;;;1.00;99.90;;;;;;4911830;29;20083;-82
2022/01/19 08:32:35;;;;;;;30.98;15.25;;;1.10;99.90;;;;;;4915267;29;20036;-81
2022/01/19 08:35:40;;;;;;;30.27;15.27;;;1.10;99.90;;;;;;4938959;29;20216;-80
2022/01/19 08:38:25;;;;;;;28.85;14.85;;;1.20;99.90;;;;;;4946258;29;20099;-80
2022/01/19 08:41:06;;;;;;;25.98;14.27;;;1.20;99.90;;;;;;4946709;29;20082;-83
2022/01/19 08:43:33;;;;;;;23.52;13.55;;;1.30;99.90;;;;;;4934174;29;20027;-81
2022/01/19 08:49:54;;;;;;;24.92;14.63;;;1.50;99.90;;;;;;4946455;28;20050;-80
2022/01/19 08:52:46;;;;;;;28.00;14.25;;;1.60;99.90;;;;;;4943380;29;20271;-82
2022/01/19 08:55:22;;;;;;;23.15;13.45;;;1.80;99.90;;;;;;4932236;29;20024;-83
2022/01/19 08:57:50;;;;;;;24.00;13.75;;;1.90;99.90;;;;;;4930100;29;20110;-81
2022/01/19 09:00:17;;;;;;;;;;;2.00;99.90;;;;;;4946216;28;20330;-81
2022/01/19 09:02:43;;;;;;;24.27;13.25;;;2.10;99.90;;;;;;4929795;29;19907;-81
2022/01/19 09:05:10;;;;;;;28.02;13.93;;;2.20;99.90;;;;;;4946279;29;20031;-80
2022/01/19 09:07:36;;;;;;;20.50;13.18;;;2.30;99.90;;;;;;4945838;29;20059;-79
2022/01/19 09:10:03;;;;;;;20.95;12.52;;;2.40;99.90;;;;;;4929596;29;20035;-81
2022/01/19 09:16:23;;;;;;;25.88;13.77;;;2.60;99.90;;;;;;4985145;28;20404;-81
2022/01/19 09:19:12;;;;;;;24.77;14.75;;;2.70;99.90;;;;;;4984580;28;20237;-82
2022/01/19 09:22:03;;;;;;;25.60;13.60;;;2.70;99.90;;;;;;4984179;28;20085;-83
2022/01/19 09:24:29;;;;;;;24.27;13.25;;;2.80;99.90;;;;;;4968110;28;20054;-83
2022/01/19 09:26:56;;;;;;;23.58;12.70;;;2.90;99.90;;;;;;4983446;28;20197;-80
2022/01/19 09:29:22;;;;;;;20.15;12.07;;;3.00;99.90;;;;;;4968208;28;20054;-81
2022/01/19 09:31:47;;;;;;;20.25;12.30;;;3.10;99.90;;;;;;4984452;28;20098;-80
2022/01/19 09:34:15;;;;;;;21.52;11.82;;;3.20;99.90;;;;;;4967865;28;20169;-81
2022/01/19 09:36:46;;;;;;;23.25;12.70;;;3.30;99.90;;;;;;4980209;28;20306;-80
2022/01/19 09:39:22;;;;;;;24.55;13.20;;;3.30;99.90;;;;;;4964622;29;20055;-80
2022/01/19 09:41:49;;;;;;;22.08;12.75;;;3.30;99.90;;;;;;4955814;28;20038;-80
2022/01/19 09:44:19;;;;;;;22.33;13.20;;;3.40;99.90;;;;;;4967892;28;20035;-79
2022/01/19 09:46:45;;;;;;;23.95;13.40;;;3.30;99.90;;;;;;4966750;28;20039;-80
2022/01/19 09:49:13;;;;;;;21.35;12.07;;;3.40;99.90;;;;;;4984674;28;20046;-80
2022/01/19 09:52:03;;;;;;;24.77;13.85;;;3.40;99.90;;;;;;4967500;28;20026;-80
2022/01/19 09:54:30;;;;;;;24.05;12.82;;;3.40;99.90;;;;;;4985411;28;20097;-81
2022/01/19 09:56:56;;;;;;;20.52;11.93;;;3.60;99.90;;;;;;4984562;28;20018;-80
2022/01/19 09:59:23;;;;;;;22.98;12.68;;;3.60;99.90;;;;;;4967296;28;20038;-80
2022/01/19 10:02:01;;;;;;;19.02;12.07;;;3.70;99.90;;;;;;4966843;28;20035;-82
2022/01/19 10:04:32;;;;;;;24.50;13.00;;;3.80;99.90;;;;;;4983363;28;20093;-81
2022/01/19 10:07:19;;;;;;;22.45;12.77;;;3.80;99.90;;;;;;4966929;28;20023;-80
2022/01/19 10:10:15;;;;;;;25.40;12.38;;;3.90;99.90;;;;;;4982743;28;20057;-80
2022/01/19 10:18:29;;;;;;;20.50;11.85;;;4.20;99.90;;;;;;4984321;28;20067;-81
2022/01/19 10:21:13;;;;;;;20.98;12.70;;;4.20;99.90;;;;;;4982324;28;20348;-81
2022/01/19 10:23:40;;;;;;;22.73;12.60;;;4.30;99.90;;;;;;4983216;28;20332;-80
2022/01/19 10:26:09;;;;;;;20.98;12.32;;;4.40;99.90;;;;;;4982559;28;20039;-80
2022/01/19 10:28:54;;;;;;;24.05;12.45;;;4.50;99.90;;;;;;4983167;28;20101;-80
2022/01/19 10:31:19;;;;;;;21.83;11.88;;;4.60;99.90;;;;;;4966053;28;20046;-80
2022/01/19 10:34:11;;;;;;;22.00;12.32;;;4.70;99.90;;;;;;4966786;28;20033;-82
2022/01/19 10:36:52;;;;;;;21.13;11.80;;;4.70;99.90;;;;;;4979390;28;20031;-80
2022/01/19 10:39:19;;;;;;;22.02;11.82;;;4.90;99.90;;;;;;4965436;28;20031;-78
2022/01/19 10:42:06;;;;;;;20.40;11.73;;;5.10;99.90;;;;;;4968652;29;20203;-80
2022/01/19 10:44:39;;;;;;;23.38;12.55;;;5.20;99.90;;;;;;4962110;29;20882;-80
2022/01/19 10:47:05;;;;;;;24.35;11.32;;;5.30;99.90;;;;;;4945454;29;20317;-79
2022/01/19 10:49:48;;;;;;;20.85;11.82;;;5.50;99.90;;;;;;4962368;29;20074;-80
2022/01/19 10:52:31;;;;;;;20.92;11.65;;;5.70;99.90;;;;;;4962275;29;20031;-81
2022/01/19 10:59:01;;;;;;;17.52;10.77;;;6.70;99.90;;;;;;4962856;29;20039;-81
2022/01/19 11:01:44;;;;;;;17.83;10.90;;;7.70;99.90;;;;;;4963160;28;20066;-82
2022/01/19 11:04:20;;;;;;;18.10;11.40;;;8.10;99.90;;;;;;4946350;29;20050;-82
2022/01/19 11:07:06;;;;;;;21.27;10.82;;;8.60;99.90;;;;;;4946001;29;20031;-80
2022/01/19 11:09:44;;;;;;;19.10;10.60;;;9.20;99.90;;;;;;4931608;28;20115;-82
2022/01/19 11:12:14;;;;;;;16.27;10.32;;;10.00;99.90;;;;;;4965693;28;20031;-81
2022/01/19 11:14:40;;;;;;;14.82;9.25;;;10.50;99.90;;;;;;4963345;28;20094;-83
2022/01/19 11:17:08;;;;;;;15.55;8.80;;;11.10;99.90;;;;;;4962286;28;20059;-81
2022/01/19 11:19:40;;;;;;;18.08;9.52;;;11.70;99.90;;;;;;4962936;29;20027;-80
2022/01/19 11:22:15;;;;;;;13.90;8.85;;;12.20;99.60;;;;;;4978563;28;20030;-81
2022/01/19 11:24:48;;;;;;;13.77;9.68;;;12.50;98.60;;;;;;4962573;29;20313;-82
2022/01/19 11:27:15;;;;;;;12.57;9.20;;;12.10;98.20;;;;;;4962365;29;20321;-80
2022/01/19 11:29:41;;;;;;;13.57;10.02;;;12.10;98.80;;;;;;4978774;28;20034;-83
2022/01/19 11:32:34;;;;;;;12.75;8.90;;;12.30;97.60;;;;;;4978529;28;20282;-80
2022/01/19 11:35:02;;;;;;;13.30;8.85;;;13.10;97.70;;;;;;4957732;29;20118;-82
2022/01/19 11:37:54;;;;;;;13.82;9.50;;;14.10;96.50;;;;;;4972984;28;20019;-81
2022/01/19 11:40:19;;;;;;;13.27;9.10;;;14.60;95.00;;;;;;4948319;29;20031;-83
2022/01/19 11:42:45;;;;;;;14.05;8.77;;;15.10;94.30;;;;;;4946180;29;20038;-81
2022/01/19 11:45:40;;;;;;;11.98;8.93;;;15.40;93.40;;;;;;4945975;28;20070;-81
2022/01/19 11:48:18;;;;;;;13.07;8.65;;;16.00;92.70;;;;;;4948312;29;20098;-80
2022/01/19 11:50:45;;;;;;;12.82;9.18;;;16.10;91.30;;;;;;4955842;28;20035;-82
2022/01/19 11:53:12;;;;;;;12.40;9.27;;;15.50;91.70;;;;;;4964688;28;20082;-83
2022/01/19 11:56:06;;;;;;;15.35;9.55;;;15.80;91.00;;;;;;4980647;28;20054;-83
2022/01/19 11:58:33;;;;;;;12.30;8.68;;;16.70;90.50;;;;;;4980151;28;20035;-81
2022/01/19 12:00:59;;;;;;;11.43;9.07;;;16.40;90.20;;;;;;4962860;28;20050;-82
2022/01/19 12:03:26;;;;;;;13.23;8.77;;;16.50;89.90;;;;;;4963618;28;20065;-80
2022/01/19 12:05:54;;;;;;;15.83;10.10;;;16.10;89.40;;;;;;4981201;28;20041;-82
2022/01/19 12:08:22;;;;;;;13.77;9.20;;;16.00;89.30;;;;;;4982699;28;20027;-81
2022/01/19 12:10:51;;;;;;;14.95;10.43;;;16.30;89.80;;;;;;4981003;28;20027;-80
2022/01/19 12:17:04;;;;;;;14.07;8.88;;;16.50;87.30;;;;;;4966425;28;20038;-82
2022/01/19 12:19:53;;;;;;;13.98;9.20;;;16.70;87.20;;;;;;4981472;28;20035;-80
2022/01/19 12:30:18;;;;;;;11.55;8.20;;;14.00;91.20;;;;;;4980245;28;20061;-81
2022/01/19 12:32:54;;;;;;;12.35;7.65;;;14.60;90.50;;;;;;4975830;28;20054;-83
2022/01/19 12:35:34;;;;;;;13.40;9.00;;;14.60;90.60;;;;;;4980160;28;20066;-82
2022/01/19 12:38:03;;;;;;;11.40;8.15;;;15.40;89.20;;;;;;4959812;28;20027;-82
2022/01/19 12:40:36;;;;;;;11.85;7.53;;;15.40;89.50;;;;;;4966789;28;20265;-83
2022/01/19 12:43:27;;;;;;;13.43;8.25;;;15.90;87.50;;;;;;4968459;28;20050;-81
2022/01/19 12:45:53;;;;;;;12.13;7.40;;;15.50;87.80;;;;;;4967757;28;20035;-83
2022/01/19 12:48:48;;;;;;;9.48;7.32;;;15.00;88.90;;;;;;4968244;28;20035;-82
2022/01/19 12:51:39;;;;;;;13.13;7.70;;;15.10;89.50;;;;;;4952402;28;20049;-80
2022/01/19 12:54:06;;;;;;;9.85;6.93;;;14.80;89.50;;;;;;4972203;28;20102;-82
2022/01/19 13:04:07;;;;;;;8.75;6.53;;;15.30;89.30;;;;;;4978534;28;20236;-83
2022/01/19 13:06:34;;;;;;;10.70;7.00;;;14.10;89.80;;;;;;4967410;28;20376;-80
2022/01/19 13:09:09;;;;;;;9.63;6.53;;;12.90;90.90;;;;;;4967248;28;20355;-81
2022/01/19 13:14:04;;;;;;;13.57;7.20;;;11.40;93.30;;;;;;4964195;29;20031;-83
2022/01/19 13:16:41;;;;;;;11.70;7.60;;;11.10;94.10;;;;;;4963719;28;20065;-82
2022/01/19 13:19:14;;;;;;;12.35;7.18;;;10.50;95.20;;;;;;4974505;28;20040;-82
2022/01/19 13:21:41;;;;;;;10.80;6.75;;;10.30;95.50;;;;;;4991257;28;20023;-82
2022/01/19 13:24:17;;;;;;;11.43;6.90;;;10.20;96.60;;;;;;4983455;28;20249;-82
2022/01/19 13:26:55;;;;;;;11.73;7.10;;;9.90;96.80;;;;;;4968282;28;20058;-81
2022/01/19 13:29:25;;;;;;;12.55;6.72;;;9.80;96.50;;;;;;4968653;28;20126;-84
2022/01/19 13:32:10;;;;;;;12.65;6.65;;;9.50;98.00;;;;;;4968868;28;20102;-82
2022/01/19 13:35:02;;;;;;;12.27;7.03;;;9.50;97.40;;;;;;4971467;28;20027;-81
2022/01/19 13:37:31;;;;;;;13.98;8.73;;;9.30;97.60;;;;;;4987108;28;20031;-82
2022/01/19 13:40:01;;;;;;;11.52;7.72;;;9.30;98.50;;;;;;4969238;28;20288;-82
2022/01/19 13:42:39;;;;;;;13.95;6.97;;;9.30;97.90;;;;;;4983742;28;20411;-81
2022/01/19 13:45:38;;;;;;;13.53;8.07;;;9.70;99.90;;;;;;4982299;28;20102;-81
2022/01/19 13:48:20;;;;;;;12.68;7.68;;;9.90;99.90;;;;;;4985507;28;20529;-82
2022/01/19 13:50:53;;;;;;;14.38;6.97;;;9.80;97.70;;;;;;4985083;28;20030;-82
2022/01/19 13:53:32;;;;;;;13.32;7.43;;;9.60;98.20;;;;;;4968378;28;20337;-83
2022/01/19 13:56:00;;;;;;;11.07;7.05;;;9.60;99.90;;;;;;4984683;28;20027;-82
2022/01/19 13:58:36;;;;;;;12.20;7.45;;;9.50;98.60;;;;;;4985179;28;20077;-82
2022/01/19 14:01:08;;;;;;;12.13;7.35;;;9.30;99.40;;;;;;4966503;28;20284;-82
2022/01/19 14:04:03;;;;;;;14.15;8.65;;;9.20;99.50;;;;;;4968016;28;20038;-83
2022/01/19 14:06:35;;;;;;;15.23;8.07;;;9.10;99.60;;;;;;4984218;28;20037;-82
2022/01/19 14:09:16;;;;;;;14.10;7.75;;;8.80;99.70;;;;;;4983846;28;20038;-81
2022/01/19 14:12:08;;;;;;;12.05;7.15;;;8.80;99.70;;;;;;4965112;28;20043;-81
2022/01/19 14:15:29;;;;;;;14.43;7.63;;;9.10;99.90;;;;;;4983658;28;20034;-82
2022/01/19 14:18:09;;;;;;;12.90;7.82;;;9.80;99.80;;;;;;4982776;28;20046;-80
2022/01/19 14:20:35;;;;;;;12.15;7.28;;;10.50;98.00;;;;;;4982998;28;20321;-81
2022/01/19 14:23:12;;;;;;;11.57;6.60;;;10.80;97.50;;;;;;4967003;28;20026;-82
2022/01/19 14:25:38;;;;;;;10.25;6.30;;;10.40;97.20;;;;;;4983225;28;20030;-82
2022/01/19 14:28:14;;;;;;;11.10;6.03;;;10.20;97.50;;;;;;4981903;28;20135;-82
2022/01/19 14:30:41;;;;;;;9.38;5.43;;;9.50;97.60;;;;;;4981531;28;20035;-82
2022/01/19 14:33:13;;;;;;;9.52;4.70;;;8.70;97.90;;;;;;4981758;28;20030;-83
2022/01/19 14:36:01;;;;;;;9.50;4.95;;;8.40;98.70;;;;;;4982102;28;20026;-82
2022/01/19 14:38:31;;;;;;;9.20;4.93;;;7.90;98.90;;;;;;4962552;28;20039;-82
2022/01/19 14:41:17;;;;;;;9.70;5.22;;;7.80;99.60;;;;;;4946476;29;20035;-82
2022/01/19 14:43:53;;;;;;;9.55;5.53;;;7.80;99.30;;;;;;4963772;28;20038;-82
2022/01/19 14:46:36;;;;;;;8.25;4.80;;;7.60;99.60;;;;;;4967091;28;20115;-83
2022/01/19 14:49:01;;;;;;;8.80;4.70;;;7.70;99.70;;;;;;4965321;28;20039;-82
2022/01/19 14:51:29;;;;;;;9.55;5.15;;;7.60;99.90;;;;;;4982946;28;20030;-81
2022/01/19 14:54:02;;;;;;;9.93;5.78;;;7.40;99.90;;;;;;4949576;28;20039;-83
2022/01/19 14:56:28;;;;;;;9.65;5.28;;;7.50;99.90;;;;;;4983273;28;20083;-81
2022/01/19 14:59:04;;;;;;;10.88;5.47;;;7.30;99.90;;;;;;4971500;28;20141;-82
2022/01/19 15:09:10;;;;;;;12.55;6.30;;;7.00;99.90;;;;;;4983080;28;20245;-81
2022/01/19 15:11:37;;;;;;;10.00;5.82;;;6.80;99.90;;;;;;4980486;28;20048;-80
2022/01/19 15:14:03;;;;;;;10.25;5.88;;;6.80;99.90;;;;;;4981145;28;20023;-81
2022/01/19 15:16:32;;;;;;;10.70;6.05;;;6.70;99.90;;;;;;4996551;28;20227;-82
2022/01/19 15:18:58;;;;;;;10.13;5.85;;;6.60;99.90;;;;;;4982303;28;20033;-82
2022/01/19 15:21:27;;;;;;;11.98;6.18;;;6.60;99.90;;;;;;4962489;28;20042;-82
2022/01/19 15:28:02;;;;;;;10.55;6.22;;;6.50;99.90;;;;;;4982585;28;20062;-80
2022/01/19 15:31:04;;;;;;;10.70;6.45;;;6.40;99.90;;;;;;4982863;28;20053;-80
2022/01/19 15:33:30;;;;;;;12.10;6.15;;;6.40;99.90;;;;;;4965387;28;20077;-80
2022/01/19 15:35:57;;;;;;;12.82;6.28;;;6.30;99.90;;;;;;4982106;28;20099;-80
2022/01/19 15:38:25;;;;;;;10.90;6.20;;;6.30;99.90;;;;;;4981755;28;20030;-80
2022/01/19 15:40:51;;;;;;;14.25;6.38;;;6.30;99.90;;;;;;4965825;28;20194;-78
2022/01/19 15:43:18;;;;;;;11.55;6.80;;;6.20;99.90;;;;;;4982279;28;20046;-78